sensor_id;sensor_type;location;lat;lon;timestamp;P1;durP1;ratioP1;P2;durP2;ratioP2
22417;SDS011;11376;50.932;4.442;2023-11-18T00:00:22;23.00;;;10.07;;
22417;SDS011;11376;50.932;4.442;2023-11-18T00:02:49;19.37;;;9.50;;
22417;SDS011;11376;50.932;4.442;2023-11-18T00:05:15;22.13;;;10.10;;
22417;SDS011;11376;50.932;4.442;2023-11-18T00:07:40;20.27;;;10.30;;
22417;SDS011;11376;50.932;4.442;2023-11-18T00:10:06;21.27;;;9.87;;
22417;SDS011;11376;50.932;4.442;2023-11-18T00:12:33;23.63;;;10.03;;
22417;SDS011;11376;50.932;4.442;2023-11-18T00:15:00;22.43;;;10.37;;
22417;SDS011;11376;50.932;4.442;2023-11-18T00:17:32;20.27;;;9.37;;
22417;SDS011;11376;50.932;4.442;2023-11-18T00:19:58;19.63;;;9.43;;
22417;SDS011;11376;50.932;4.442;2023-11-18T00:22:24;18.33;;;9.60;;
22417;SDS011;11376;50.932;4.442;2023-11-18T00:24:49;23.43;;;9.03;;
22417;SDS011;11376;50.932;4.442;2023-11-18T00:27:15;19.40;;;9.13;;
22417;SDS011;11376;50.932;4.442;2023-11-18T00:29:41;23.07;;;9.60;;
22417;SDS011;11376;50.932;4.442;2023-11-18T00:32:08;21.90;;;9.90;;
22417;SDS011;11376;50.932;4.442;2023-11-18T00:34:34;21.13;;;8.83;;
22417;SDS011;11376;50.932;4.442;2023-11-18T00:36:59;18.13;;;9.20;;
22417;SDS011;11376;50.932;4.442;2023-11-18T00:39:25;21.60;;;9.50;;
22417;SDS011;11376;50.932;4.442;2023-11-18T00:41:51;19.30;;;9.13;;
22417;SDS011;11376;50.932;4.442;2023-11-18T00:44:17;19.97;;;9.70;;
22417;SDS011;11376;50.932;4.442;2023-11-18T00:46:43;17.33;;;8.83;;
22417;SDS011;11376;50.932;4.442;2023-11-18T00:49:09;25.23;;;10.10;;
22417;SDS011;11376;50.932;4.442;2023-11-18T00:51:36;23.43;;;9.77;;
22417;SDS011;11376;50.932;4.442;2023-11-18T00:54:02;19.50;;;9.20;;
22417;SDS011;11376;50.932;4.442;2023-11-18T00:56:31;25.30;;;9.00;;
22417;SDS011;11376;50.932;4.442;2023-11-18T00:58:57;21.60;;;8.87;;
22417;SDS011;11376;50.932;4.442;2023-11-18T01:01:22;21.07;;;8.97;;
22417;SDS011;11376;50.932;4.442;2023-11-18T01:03:48;21.10;;;9.23;;
22417;SDS011;11376;50.932;4.442;2023-11-18T01:06:14;23.73;;;8.97;;
22417;SDS011;11376;50.932;4.442;2023-11-18T01:08:45;23.30;;;9.50;;
22417;SDS011;11376;50.932;4.442;2023-11-18T01:11:17;23.97;;;9.73;;
22417;SDS011;11376;50.932;4.442;2023-11-18T01:13:49;25.33;;;9.83;;
22417;SDS011;11376;50.932;4.442;2023-11-18T01:16:15;26.63;;;9.93;;
22417;SDS011;11376;50.932;4.442;2023-11-18T01:18:42;27.47;;;9.50;;
22417;SDS011;11376;50.932;4.442;2023-11-18T01:21:08;27.40;;;9.67;;
22417;SDS011;11376;50.932;4.442;2023-11-18T01:23:37;26.07;;;8.93;;
22417;SDS011;11376;50.932;4.442;2023-11-18T01:26:04;29.97;;;10.57;;
22417;SDS011;11376;50.932;4.442;2023-11-18T01:28:39;26.47;;;9.73;;
22417;SDS011;11376;50.932;4.442;2023-11-18T01:31:08;22.83;;;9.33;;
22417;SDS011;11376;50.932;4.442;2023-11-18T01:33:37;27.00;;;10.43;;
22417;SDS011;11376;50.932;4.442;2023-11-18T01:36:05;24.50;;;10.40;;
22417;SDS011;11376;50.932;4.442;2023-11-18T01:38:37;26.33;;;10.67;;
22417;SDS011;11376;50.932;4.442;2023-11-18T01:41:03;26.30;;;10.53;;
22417;SDS011;11376;50.932;4.442;2023-11-18T01:43:30;29.00;;;9.90;;
22417;SDS011;11376;50.932;4.442;2023-11-18T01:45:57;30.87;;;10.40;;
22417;SDS011;11376;50.932;4.442;2023-11-18T01:48:35;29.17;;;9.87;;
22417;SDS011;11376;50.932;4.442;2023-11-18T01:51:02;26.67;;;10.00;;
22417;SDS011;11376;50.932;4.442;2023-11-18T01:53:31;28.70;;;10.00;;
22417;SDS011;11376;50.932;4.442;2023-11-18T01:55:58;26.40;;;9.60;;
22417;SDS011;11376;50.932;4.442;2023-11-18T01:58:24;27.90;;;9.77;;
22417;SDS011;11376;50.932;4.442;2023-11-18T02:00:51;23.60;;;9.03;;
22417;SDS011;11376;50.932;4.442;2023-11-18T02:03:17;22.17;;;8.53;;
22417;SDS011;11376;50.932;4.442;2023-11-18T02:05:43;25.43;;;9.03;;
22417;SDS011;11376;50.932;4.442;2023-11-18T02:08:09;22.07;;;8.17;;
22417;SDS011;11376;50.932;4.442;2023-11-18T02:10:41;24.63;;;8.37;;
22417;SDS011;11376;50.932;4.442;2023-11-18T02:13:16;19.70;;;8.07;;
22417;SDS011;11376;50.932;4.442;2023-11-18T02:15:54;22.23;;;8.00;;
22417;SDS011;11376;50.932;4.442;2023-11-18T02:18:24;19.67;;;8.10;;
22417;SDS011;11376;50.932;4.442;2023-11-18T02:20:51;22.40;;;7.23;;
22417;SDS011;11376;50.932;4.442;2023-11-18T02:23:18;23.20;;;7.63;;
22417;SDS011;11376;50.932;4.442;2023-11-18T02:25:46;19.20;;;7.27;;
22417;SDS011;11376;50.932;4.442;2023-11-18T02:28:12;18.77;;;6.70;;
22417;SDS011;11376;50.932;4.442;2023-11-18T02:30:38;23.33;;;6.67;;
22417;SDS011;11376;50.932;4.442;2023-11-18T02:35:53;14.70;;;5.50;;
22417;SDS011;11376;50.932;4.442;2023-11-18T02:38:25;14.73;;;5.40;;
22417;SDS011;11376;50.932;4.442;2023-11-18T02:40:57;21.23;;;6.00;;
22417;SDS011;11376;50.932;4.442;2023-11-18T02:43:24;14.33;;;4.80;;
22417;SDS011;11376;50.932;4.442;2023-11-18T02:45:53;15.53;;;4.67;;
22417;SDS011;11376;50.932;4.442;2023-11-18T02:48:21;13.07;;;4.30;;
22417;SDS011;11376;50.932;4.442;2023-11-18T02:50:47;14.83;;;4.10;;
22417;SDS011;11376;50.932;4.442;2023-11-18T02:53:12;10.43;;;3.40;;
22417;SDS011;11376;50.932;4.442;2023-11-18T02:55:38;12.17;;;3.47;;
22417;SDS011;11376;50.932;4.442;2023-11-18T02:58:05;14.13;;;3.37;;
22417;SDS011;11376;50.932;4.442;2023-11-18T03:00:32;8.53;;;2.70;;
22417;SDS011;11376;50.932;4.442;2023-11-18T03:03:03;8.00;;;2.83;;
22417;SDS011;11376;50.932;4.442;2023-11-18T03:05:29;8.90;;;3.00;;
22417;SDS011;11376;50.932;4.442;2023-11-18T03:07:55;11.30;;;3.03;;
22417;SDS011;11376;50.932;4.442;2023-11-18T03:10:22;11.27;;;3.00;;
22417;SDS011;11376;50.932;4.442;2023-11-18T03:12:51;9.40;;;2.57;;
22417;SDS011;11376;50.932;4.442;2023-11-18T03:15:18;9.60;;;2.80;;
22417;SDS011;11376;50.932;4.442;2023-11-18T03:17:47;11.17;;;2.67;;
22417;SDS011;11376;50.932;4.442;2023-11-18T03:20:15;8.47;;;2.63;;
22417;SDS011;11376;50.932;4.442;2023-11-18T03:22:51;10.47;;;2.87;;
22417;SDS011;11376;50.932;4.442;2023-11-18T03:25:17;17.43;;;2.70;;
22417;SDS011;11376;50.932;4.442;2023-11-18T03:27:44;10.13;;;2.60;;
22417;SDS011;11376;50.932;4.442;2023-11-18T03:30:10;8.40;;;2.60;;
22417;SDS011;11376;50.932;4.442;2023-11-18T03:32:36;11.17;;;2.77;;
22417;SDS011;11376;50.932;4.442;2023-11-18T03:35:03;15.50;;;2.70;;
22417;SDS011;11376;50.932;4.442;2023-11-18T03:37:32;11.63;;;2.37;;
22417;SDS011;11376;50.932;4.442;2023-11-18T03:39:57;8.30;;;2.70;;
22417;SDS011;11376;50.932;4.442;2023-11-18T03:42:23;9.93;;;2.50;;
22417;SDS011;11376;50.932;4.442;2023-11-18T03:44:49;10.60;;;2.60;;
22417;SDS011;11376;50.932;4.442;2023-11-18T03:47:14;12.97;;;2.60;;
22417;SDS011;11376;50.932;4.442;2023-11-18T03:49:42;9.47;;;2.27;;
22417;SDS011;11376;50.932;4.442;2023-11-18T03:52:08;9.77;;;2.83;;
22417;SDS011;11376;50.932;4.442;2023-11-18T03:54:34;11.50;;;2.40;;
22417;SDS011;11376;50.932;4.442;2023-11-18T03:56:59;11.43;;;2.50;;
22417;SDS011;11376;50.932;4.442;2023-11-18T03:59:25;10.20;;;2.20;;
22417;SDS011;11376;50.932;4.442;2023-11-18T04:01:51;7.20;;;2.00;;
22417;SDS011;11376;50.932;4.442;2023-11-18T04:04:17;8.03;;;1.97;;
22417;SDS011;11376;50.932;4.442;2023-11-18T04:06:43;11.00;;;1.83;;
22417;SDS011;11376;50.932;4.442;2023-11-18T04:09:09;10.73;;;2.30;;
22417;SDS011;11376;50.932;4.442;2023-11-18T04:11:35;9.87;;;2.03;;
22417;SDS011;11376;50.932;4.442;2023-11-18T04:14:01;10.57;;;2.03;;
22417;SDS011;11376;50.932;4.442;2023-11-18T04:16:28;8.47;;;2.30;;
22417;SDS011;11376;50.932;4.442;2023-11-18T04:18:54;11.73;;;2.17;;
22417;SDS011;11376;50.932;4.442;2023-11-18T04:21:20;9.50;;;1.80;;
22417;SDS011;11376;50.932;4.442;2023-11-18T04:23:46;11.23;;;1.70;;
22417;SDS011;11376;50.932;4.442;2023-11-18T04:26:12;10.43;;;1.70;;
22417;SDS011;11376;50.932;4.442;2023-11-18T04:28:37;14.87;;;2.20;;
22417;SDS011;11376;50.932;4.442;2023-11-18T04:31:03;8.53;;;2.07;;
22417;SDS011;11376;50.932;4.442;2023-11-18T04:33:30;8.63;;;1.60;;
22417;SDS011;11376;50.932;4.442;2023-11-18T04:35:56;10.10;;;1.80;;
22417;SDS011;11376;50.932;4.442;2023-11-18T04:38:22;6.97;;;1.37;;
22417;SDS011;11376;50.932;4.442;2023-11-18T04:40:48;7.73;;;2.00;;
22417;SDS011;11376;50.932;4.442;2023-11-18T04:43:14;9.17;;;1.57;;
22417;SDS011;11376;50.932;4.442;2023-11-18T04:45:40;7.90;;;1.50;;
22417;SDS011;11376;50.932;4.442;2023-11-18T04:48:07;10.53;;;1.67;;
22417;SDS011;11376;50.932;4.442;2023-11-18T04:50:33;4.70;;;1.53;;
22417;SDS011;11376;50.932;4.442;2023-11-18T04:52:58;8.87;;;1.03;;
22417;SDS011;11376;50.932;4.442;2023-11-18T04:55:24;11.03;;;1.67;;
22417;SDS011;11376;50.932;4.442;2023-11-18T04:57:51;6.27;;;1.50;;
22417;SDS011;11376;50.932;4.442;2023-11-18T05:00:17;8.90;;;1.70;;
22417;SDS011;11376;50.932;4.442;2023-11-18T05:02:44;7.80;;;1.30;;
22417;SDS011;11376;50.932;4.442;2023-11-18T05:05:12;6.80;;;1.57;;
22417;SDS011;11376;50.932;4.442;2023-11-18T05:07:39;10.57;;;1.57;;
22417;SDS011;11376;50.932;4.442;2023-11-18T05:10:05;10.80;;;1.80;;
22417;SDS011;11376;50.932;4.442;2023-11-18T05:12:33;8.20;;;1.50;;
22417;SDS011;11376;50.932;4.442;2023-11-18T05:14:59;7.63;;;1.93;;
22417;SDS011;11376;50.932;4.442;2023-11-18T05:17:25;5.80;;;1.47;;
22417;SDS011;11376;50.932;4.442;2023-11-18T05:19:52;7.83;;;1.57;;
22417;SDS011;11376;50.932;4.442;2023-11-18T05:22:18;8.20;;;1.57;;
22417;SDS011;11376;50.932;4.442;2023-11-18T05:24:45;5.67;;;1.50;;
22417;SDS011;11376;50.932;4.442;2023-11-18T05:27:11;12.33;;;1.70;;
22417;SDS011;11376;50.932;4.442;2023-11-18T05:29:37;6.63;;;1.50;;
22417;SDS011;11376;50.932;4.442;2023-11-18T05:32:03;8.77;;;1.50;;
22417;SDS011;11376;50.932;4.442;2023-11-18T05:34:29;13.07;;;1.63;;
22417;SDS011;11376;50.932;4.442;2023-11-18T05:36:55;11.23;;;1.63;;
22417;SDS011;11376;50.932;4.442;2023-11-18T05:39:20;7.80;;;1.50;;
22417;SDS011;11376;50.932;4.442;2023-11-18T05:41:49;11.87;;;1.57;;
22417;SDS011;11376;50.932;4.442;2023-11-18T05:44:16;9.27;;;1.63;;
22417;SDS011;11376;50.932;4.442;2023-11-18T05:46:44;9.93;;;1.60;;
22417;SDS011;11376;50.932;4.442;2023-11-18T05:49:16;6.43;;;1.47;;
22417;SDS011;11376;50.932;4.442;2023-11-18T05:51:43;7.97;;;1.33;;
22417;SDS011;11376;50.932;4.442;2023-11-18T05:54:09;13.27;;;1.93;;
22417;SDS011;11376;50.932;4.442;2023-11-18T05:56:35;11.57;;;1.60;;
22417;SDS011;11376;50.932;4.442;2023-11-18T05:59:01;8.20;;;1.30;;
22417;SDS011;11376;50.932;4.442;2023-11-18T06:01:30;12.97;;;2.07;;
22417;SDS011;11376;50.932;4.442;2023-11-18T06:03:56;11.70;;;1.80;;
22417;SDS011;11376;50.932;4.442;2023-11-18T06:06:22;9.50;;;1.67;;
22417;SDS011;11376;50.932;4.442;2023-11-18T06:08:47;10.60;;;1.93;;
22417;SDS011;11376;50.932;4.442;2023-11-18T06:11:14;10.43;;;1.73;;
22417;SDS011;11376;50.932;4.442;2023-11-18T06:13:44;7.50;;;1.80;;
22417;SDS011;11376;50.932;4.442;2023-11-18T06:16:18;9.00;;;1.60;;
22417;SDS011;11376;50.932;4.442;2023-11-18T06:18:50;11.30;;;2.10;;
22417;SDS011;11376;50.932;4.442;2023-11-18T06:21:17;8.47;;;2.03;;
22417;SDS011;11376;50.932;4.442;2023-11-18T06:23:45;8.33;;;1.60;;
22417;SDS011;11376;50.932;4.442;2023-11-18T06:26:12;9.93;;;1.83;;
22417;SDS011;11376;50.932;4.442;2023-11-18T06:28:38;8.27;;;2.00;;
22417;SDS011;11376;50.932;4.442;2023-11-18T06:31:05;11.03;;;1.70;;
22417;SDS011;11376;50.932;4.442;2023-11-18T06:33:36;8.40;;;1.73;;
22417;SDS011;11376;50.932;4.442;2023-11-18T06:36:08;10.43;;;1.93;;
22417;SDS011;11376;50.932;4.442;2023-11-18T06:38:34;11.47;;;1.70;;
22417;SDS011;11376;50.932;4.442;2023-11-18T06:41:00;9.23;;;1.90;;
22417;SDS011;11376;50.932;4.442;2023-11-18T06:43:28;14.00;;;1.73;;
22417;SDS011;11376;50.932;4.442;2023-11-18T06:46:07;8.97;;;1.57;;
22417;SDS011;11376;50.932;4.442;2023-11-18T06:48:35;7.03;;;1.57;;
22417;SDS011;11376;50.932;4.442;2023-11-18T06:51:01;7.67;;;1.67;;
22417;SDS011;11376;50.932;4.442;2023-11-18T06:53:27;8.87;;;1.60;;
22417;SDS011;11376;50.932;4.442;2023-11-18T06:55:52;8.30;;;1.67;;
22417;SDS011;11376;50.932;4.442;2023-11-18T06:58:18;11.00;;;1.87;;
22417;SDS011;11376;50.932;4.442;2023-11-18T07:00:43;7.73;;;1.47;;
22417;SDS011;11376;50.932;4.442;2023-11-18T07:03:10;7.20;;;1.33;;
22417;SDS011;11376;50.932;4.442;2023-11-18T07:05:37;8.87;;;1.70;;
22417;SDS011;11376;50.932;4.442;2023-11-18T07:08:02;9.23;;;1.70;;
22417;SDS011;11376;50.932;4.442;2023-11-18T07:10:28;7.93;;;1.30;;
22417;SDS011;11376;50.932;4.442;2023-11-18T07:12:54;11.93;;;1.50;;
22417;SDS011;11376;50.932;4.442;2023-11-18T07:15:19;9.93;;;1.73;;
22417;SDS011;11376;50.932;4.442;2023-11-18T07:17:45;12.30;;;1.70;;
22417;SDS011;11376;50.932;4.442;2023-11-18T07:20:11;8.80;;;1.50;;
22417;SDS011;11376;50.932;4.442;2023-11-18T07:22:38;12.60;;;1.60;;
22417;SDS011;11376;50.932;4.442;2023-11-18T07:25:04;13.17;;;1.60;;
22417;SDS011;11376;50.932;4.442;2023-11-18T07:27:33;8.87;;;1.63;;
22417;SDS011;11376;50.932;4.442;2023-11-18T07:30:00;9.07;;;1.80;;
22417;SDS011;11376;50.932;4.442;2023-11-18T07:32:25;5.80;;;1.30;;
22417;SDS011;11376;50.932;4.442;2023-11-18T07:34:51;10.37;;;1.73;;
22417;SDS011;11376;50.932;4.442;2023-11-18T07:37:16;7.97;;;1.60;;
22417;SDS011;11376;50.932;4.442;2023-11-18T07:39:42;11.80;;;1.90;;
22417;SDS011;11376;50.932;4.442;2023-11-18T07:42:13;7.23;;;1.43;;
22417;SDS011;11376;50.932;4.442;2023-11-18T07:44:39;5.50;;;1.50;;
22417;SDS011;11376;50.932;4.442;2023-11-18T07:47:06;6.23;;;1.43;;
22417;SDS011;11376;50.932;4.442;2023-11-18T07:49:32;10.57;;;1.97;;
22417;SDS011;11376;50.932;4.442;2023-11-18T07:52:00;11.33;;;1.90;;
22417;SDS011;11376;50.932;4.442;2023-11-18T07:54:26;7.20;;;1.87;;
22417;SDS011;11376;50.932;4.442;2023-11-18T07:56:52;8.93;;;2.10;;
22417;SDS011;11376;50.932;4.442;2023-11-18T07:59:19;9.93;;;2.43;;
22417;SDS011;11376;50.932;4.442;2023-11-18T08:01:45;9.00;;;2.50;;
22417;SDS011;11376;50.932;4.442;2023-11-18T08:04:11;11.00;;;2.57;;
22417;SDS011;11376;50.932;4.442;2023-11-18T08:06:39;9.23;;;2.33;;
22417;SDS011;11376;50.932;4.442;2023-11-18T08:09:05;13.07;;;2.80;;
22417;SDS011;11376;50.932;4.442;2023-11-18T08:11:37;7.10;;;2.17;;
22417;SDS011;11376;50.932;4.442;2023-11-18T08:14:04;9.57;;;2.80;;
22417;SDS011;11376;50.932;4.442;2023-11-18T08:16:29;9.80;;;2.97;;
22417;SDS011;11376;50.932;4.442;2023-11-18T08:18:55;12.33;;;2.63;;
22417;SDS011;11376;50.932;4.442;2023-11-18T08:21:21;12.20;;;3.67;;
22417;SDS011;11376;50.932;4.442;2023-11-18T08:23:47;11.33;;;3.40;;
22417;SDS011;11376;50.932;4.442;2023-11-18T08:26:13;9.53;;;2.83;;
22417;SDS011;11376;50.932;4.442;2023-11-18T08:28:39;12.90;;;3.30;;
22417;SDS011;11376;50.932;4.442;2023-11-18T08:31:05;14.53;;;3.60;;
22417;SDS011;11376;50.932;4.442;2023-11-18T08:33:31;12.97;;;3.57;;
22417;SDS011;11376;50.932;4.442;2023-11-18T08:35:58;11.90;;;3.43;;
22417;SDS011;11376;50.932;4.442;2023-11-18T08:38:24;10.93;;;3.67;;
22417;SDS011;11376;50.932;4.442;2023-11-18T08:40:50;14.50;;;3.40;;
22417;SDS011;11376;50.932;4.442;2023-11-18T08:43:16;13.07;;;3.43;;
22417;SDS011;11376;50.932;4.442;2023-11-18T08:45:42;11.57;;;3.43;;
22417;SDS011;11376;50.932;4.442;2023-11-18T08:48:08;13.83;;;3.27;;
22417;SDS011;11376;50.932;4.442;2023-11-18T08:50:34;13.67;;;3.73;;
22417;SDS011;11376;50.932;4.442;2023-11-18T08:53:00;11.70;;;3.47;;
22417;SDS011;11376;50.932;4.442;2023-11-18T08:55:29;15.10;;;3.27;;
22417;SDS011;11376;50.932;4.442;2023-11-18T08:58:06;10.37;;;3.23;;
22417;SDS011;11376;50.932;4.442;2023-11-18T09:00:45;10.73;;;3.20;;
22417;SDS011;11376;50.932;4.442;2023-11-18T09:03:19;10.13;;;3.50;;
22417;SDS011;11376;50.932;4.442;2023-11-18T09:05:59;12.00;;;3.43;;
22417;SDS011;11376;50.932;4.442;2023-11-18T09:08:42;12.37;;;3.30;;
22417;SDS011;11376;50.932;4.442;2023-11-18T09:11:09;11.73;;;3.10;;
22417;SDS011;11376;50.932;4.442;2023-11-18T09:13:36;7.20;;;2.93;;
22417;SDS011;11376;50.932;4.442;2023-11-18T09:18:38;11.77;;;3.13;;
22417;SDS011;11376;50.932;4.442;2023-11-18T09:21:06;9.77;;;3.10;;
22417;SDS011;11376;50.932;4.442;2023-11-18T09:23:35;12.20;;;3.20;;
22417;SDS011;11376;50.932;4.442;2023-11-18T09:26:03;8.23;;;3.13;;
22417;SDS011;11376;50.932;4.442;2023-11-18T09:28:35;9.17;;;3.50;;
22417;SDS011;11376;50.932;4.442;2023-11-18T09:31:02;11.83;;;3.40;;
22417;SDS011;11376;50.932;4.442;2023-11-18T09:33:32;8.13;;;2.83;;
22417;SDS011;11376;50.932;4.442;2023-11-18T09:38:39;8.83;;;3.30;;
22417;SDS011;11376;50.932;4.442;2023-11-18T09:41:06;8.37;;;3.00;;
22417;SDS011;11376;50.932;4.442;2023-11-18T09:43:36;9.40;;;3.30;;
22417;SDS011;11376;50.932;4.442;2023-11-18T09:46:09;7.80;;;3.30;;
22417;SDS011;11376;50.932;4.442;2023-11-18T09:48:46;10.67;;;3.20;;
22417;SDS011;11376;50.932;4.442;2023-11-18T09:51:15;7.97;;;2.50;;
22417;SDS011;11376;50.932;4.442;2023-11-18T09:53:49;9.47;;;3.37;;
22417;SDS011;11376;50.932;4.442;2023-11-18T09:56:23;8.83;;;3.47;;
22417;SDS011;11376;50.932;4.442;2023-11-18T10:01:41;11.73;;;3.50;;
22417;SDS011;11376;50.932;4.442;2023-11-18T10:04:09;10.30;;;3.30;;
22417;SDS011;11376;50.932;4.442;2023-11-18T10:06:36;8.87;;;3.10;;
22417;SDS011;11376;50.932;4.442;2023-11-18T10:09:05;8.33;;;3.50;;
22417;SDS011;11376;50.932;4.442;2023-11-18T10:11:42;9.77;;;3.33;;
22417;SDS011;11376;50.932;4.442;2023-11-18T10:14:08;9.37;;;3.57;;
22417;SDS011;11376;50.932;4.442;2023-11-18T10:16:35;8.80;;;3.20;;
22417;SDS011;11376;50.932;4.442;2023-11-18T10:19:03;6.33;;;3.13;;
22417;SDS011;11376;50.932;4.442;2023-11-18T10:21:34;7.77;;;2.53;;
22417;SDS011;11376;50.932;4.442;2023-11-18T10:24:06;8.40;;;3.47;;
22417;SDS011;11376;50.932;4.442;2023-11-18T10:26:45;10.27;;;3.30;;
22417;SDS011;11376;50.932;4.442;2023-11-18T10:29:20;6.83;;;2.97;;
22417;SDS011;11376;50.932;4.442;2023-11-18T10:31:46;9.73;;;3.43;;
22417;SDS011;11376;50.932;4.442;2023-11-18T10:34:12;6.00;;;2.83;;
22417;SDS011;11376;50.932;4.442;2023-11-18T10:36:40;9.33;;;4.03;;
22417;SDS011;11376;50.932;4.442;2023-11-18T10:39:10;7.83;;;3.23;;
22417;SDS011;11376;50.932;4.442;2023-11-18T10:41:41;7.00;;;2.70;;
22417;SDS011;11376;50.932;4.442;2023-11-18T10:44:08;7.57;;;2.80;;
22417;SDS011;11376;50.932;4.442;2023-11-18T10:46:39;8.50;;;3.23;;
22417;SDS011;11376;50.932;4.442;2023-11-18T10:49:06;7.27;;;3.27;;
22417;SDS011;11376;50.932;4.442;2023-11-18T10:51:35;7.03;;;2.70;;
22417;SDS011;11376;50.932;4.442;2023-11-18T10:54:04;8.20;;;2.57;;
22417;SDS011;11376;50.932;4.442;2023-11-18T10:56:40;8.50;;;2.73;;
22417;SDS011;11376;50.932;4.442;2023-11-18T10:59:11;6.70;;;2.80;;
22417;SDS011;11376;50.932;4.442;2023-11-18T11:01:41;6.23;;;2.43;;
22417;SDS011;11376;50.932;4.442;2023-11-18T11:04:10;6.80;;;2.43;;
22417;SDS011;11376;50.932;4.442;2023-11-18T11:06:46;5.40;;;2.37;;
22417;SDS011;11376;50.932;4.442;2023-11-18T11:09:22;8.40;;;3.00;;
22417;SDS011;11376;50.932;4.442;2023-11-18T11:12:00;5.27;;;2.53;;
22417;SDS011;11376;50.932;4.442;2023-11-18T11:14:40;7.53;;;2.87;;
22417;SDS011;11376;50.932;4.442;2023-11-18T11:17:12;4.57;;;2.10;;
22417;SDS011;11376;50.932;4.442;2023-11-18T11:20:04;8.70;;;2.50;;
22417;SDS011;11376;50.932;4.442;2023-11-18T11:22:48;5.63;;;2.13;;
22417;SDS011;11376;50.932;4.442;2023-11-18T11:25:24;7.27;;;1.87;;
22417;SDS011;11376;50.932;4.442;2023-11-18T11:28:02;3.37;;;1.57;;
22417;SDS011;11376;50.932;4.442;2023-11-18T11:30:45;6.33;;;2.30;;
22417;SDS011;11376;50.932;4.442;2023-11-18T11:33:42;5.30;;;1.70;;
22417;SDS011;11376;50.932;4.442;2023-11-18T11:36:12;4.97;;;1.77;;
22417;SDS011;11376;50.932;4.442;2023-11-18T11:38:42;4.13;;;1.63;;
22417;SDS011;11376;50.932;4.442;2023-11-18T11:41:12;7.93;;;1.83;;
22417;SDS011;11376;50.932;4.442;2023-11-18T11:43:51;5.10;;;2.17;;
22417;SDS011;11376;50.932;4.442;2023-11-18T11:46:22;3.57;;;1.27;;
22417;SDS011;11376;50.932;4.442;2023-11-18T11:48:53;2.77;;;1.00;;
22417;SDS011;11376;50.932;4.442;2023-11-18T11:54:23;3.97;;;1.40;;
22417;SDS011;11376;50.932;4.442;2023-11-18T11:56:55;3.70;;;0.80;;
22417;SDS011;11376;50.932;4.442;2023-11-18T12:02:17;2.67;;;1.00;;
22417;SDS011;11376;50.932;4.442;2023-11-18T12:04:49;2.77;;;0.83;;
22417;SDS011;11376;50.932;4.442;2023-11-18T12:07:19;6.63;;;1.03;;
22417;SDS011;11376;50.932;4.442;2023-11-18T12:09:48;2.97;;;0.93;;
22417;SDS011;11376;50.932;4.442;2023-11-18T12:12:22;4.83;;;0.73;;
22417;SDS011;11376;50.932;4.442;2023-11-18T12:14:52;2.83;;;0.83;;
22417;SDS011;11376;50.932;4.442;2023-11-18T12:17:21;2.30;;;0.90;;
22417;SDS011;11376;50.932;4.442;2023-11-18T12:19:48;6.80;;;0.70;;
22417;SDS011;11376;50.932;4.442;2023-11-18T12:22:17;2.70;;;0.77;;
22417;SDS011;11376;50.932;4.442;2023-11-18T12:27:12;2.07;;;0.80;;
22417;SDS011;11376;50.932;4.442;2023-11-18T12:29:41;2.20;;;0.60;;
22417;SDS011;11376;50.932;4.442;2023-11-18T12:32:10;2.03;;;0.70;;
22417;SDS011;11376;50.932;4.442;2023-11-18T12:34:51;2.40;;;0.90;;
22417;SDS011;11376;50.932;4.442;2023-11-18T12:45:44;2.33;;;0.63;;
22417;SDS011;11376;50.932;4.442;2023-11-18T12:48:44;3.53;;;0.80;;
22417;SDS011;11376;50.932;4.442;2023-11-18T12:51:13;1.70;;;0.60;;
22417;SDS011;11376;50.932;4.442;2023-11-18T12:53:46;1.93;;;0.80;;
22417;SDS011;11376;50.932;4.442;2023-11-18T12:56:17;0.83;;;0.43;;
22417;SDS011;11376;50.932;4.442;2023-11-18T12:58:45;0.83;;;0.60;;
22417;SDS011;11376;50.932;4.442;2023-11-18T13:01:11;3.60;;;0.70;;
22417;SDS011;11376;50.932;4.442;2023-11-18T13:03:39;1.03;;;0.30;;
22417;SDS011;11376;50.932;4.442;2023-11-18T13:06:07;2.40;;;0.60;;
22417;SDS011;11376;50.932;4.442;2023-11-18T13:08:40;0.47;;;0.40;;
22417;SDS011;11376;50.932;4.442;2023-11-18T13:11:06;2.33;;;0.57;;
22417;SDS011;11376;50.932;4.442;2023-11-18T13:13:37;2.13;;;0.30;;
22417;SDS011;11376;50.932;4.442;2023-11-18T13:16:09;1.73;;;0.40;;
22417;SDS011;11376;50.932;4.442;2023-11-18T13:18:41;0.93;;;0.50;;
22417;SDS011;11376;50.932;4.442;2023-11-18T13:21:14;0.73;;;0.30;;
22417;SDS011;11376;50.932;4.442;2023-11-18T13:23:41;1.83;;;0.60;;
22417;SDS011;11376;50.932;4.442;2023-11-18T13:26:10;0.50;;;0.30;;
22417;SDS011;11376;50.932;4.442;2023-11-18T13:28:36;0.40;;;0.30;;
22417;SDS011;11376;50.932;4.442;2023-11-18T13:31:04;1.37;;;0.50;;
22417;SDS011;11376;50.932;4.442;2023-11-18T13:33:40;3.07;;;0.40;;
22417;SDS011;11376;50.932;4.442;2023-11-18T13:36:07;0.87;;;0.40;;
22417;SDS011;11376;50.932;4.442;2023-11-18T13:38:37;1.50;;;0.50;;
22417;SDS011;11376;50.932;4.442;2023-11-18T13:41:03;1.80;;;0.37;;
22417;SDS011;11376;50.932;4.442;2023-11-18T13:43:44;1.50;;;0.43;;
22417;SDS011;11376;50.932;4.442;2023-11-18T13:46:17;1.10;;;0.30;;
22417;SDS011;11376;50.932;4.442;2023-11-18T13:48:49;0.97;;;0.40;;
22417;SDS011;11376;50.932;4.442;2023-11-18T13:51:15;1.53;;;0.40;;
22417;SDS011;11376;50.932;4.442;2023-11-18T13:53:42;2.83;;;0.30;;
22417;SDS011;11376;50.932;4.442;2023-11-18T13:56:12;0.83;;;0.37;;
22417;SDS011;11376;50.932;4.442;2023-11-18T13:58:38;1.10;;;0.30;;
22417;SDS011;11376;50.932;4.442;2023-11-18T14:01:08;1.47;;;0.30;;
22417;SDS011;11376;50.932;4.442;2023-11-18T14:03:37;0.97;;;0.20;;
22417;SDS011;11376;50.932;4.442;2023-11-18T14:06:06;0.50;;;0.30;;
22417;SDS011;11376;50.932;4.442;2023-11-18T14:08:35;0.80;;;0.37;;
22417;SDS011;11376;50.932;4.442;2023-11-18T14:11:04;3.60;;;0.40;;
22417;SDS011;11376;50.932;4.442;2023-11-18T14:13:33;1.27;;;0.30;;
22417;SDS011;11376;50.932;4.442;2023-11-18T14:16:00;1.00;;;0.50;;
22417;SDS011;11376;50.932;4.442;2023-11-18T14:18:29;0.63;;;0.40;;
22417;SDS011;11376;50.932;4.442;2023-11-18T14:20:55;1.27;;;0.30;;
22417;SDS011;11376;50.932;4.442;2023-11-18T14:23:21;2.07;;;0.50;;
22417;SDS011;11376;50.932;4.442;2023-11-18T14:25:48;1.27;;;0.50;;
22417;SDS011;11376;50.932;4.442;2023-11-18T14:28:14;1.97;;;0.57;;
22417;SDS011;11376;50.932;4.442;2023-11-18T14:30:39;0.50;;;0.30;;
22417;SDS011;11376;50.932;4.442;2023-11-18T14:33:05;1.40;;;0.40;;
22417;SDS011;11376;50.932;4.442;2023-11-18T14:35:34;1.80;;;0.60;;
22417;SDS011;11376;50.932;4.442;2023-11-18T14:38:00;1.80;;;0.60;;
22417;SDS011;11376;50.932;4.442;2023-11-18T14:40:26;2.10;;;0.40;;
22417;SDS011;11376;50.932;4.442;2023-11-18T14:42:53;1.13;;;0.40;;
22417;SDS011;11376;50.932;4.442;2023-11-18T14:45:19;1.23;;;0.50;;
22417;SDS011;11376;50.932;4.442;2023-11-18T14:47:45;1.00;;;0.50;;
22417;SDS011;11376;50.932;4.442;2023-11-18T14:50:12;1.83;;;0.60;;
22417;SDS011;11376;50.932;4.442;2023-11-18T14:52:43;1.17;;;0.50;;
22417;SDS011;11376;50.932;4.442;2023-11-18T14:55:10;0.93;;;0.27;;
22417;SDS011;11376;50.932;4.442;2023-11-18T14:57:40;0.73;;;0.30;;
22417;SDS011;11376;50.932;4.442;2023-11-18T15:00:08;0.60;;;0.20;;
22417;SDS011;11376;50.932;4.442;2023-11-18T15:02:43;2.47;;;0.50;;
22417;SDS011;11376;50.932;4.442;2023-11-18T15:05:14;0.80;;;0.40;;
22417;SDS011;11376;50.932;4.442;2023-11-18T15:07:43;0.60;;;0.40;;
22417;SDS011;11376;50.932;4.442;2023-11-18T15:10:13;1.40;;;0.30;;
22417;SDS011;11376;50.932;4.442;2023-11-18T15:12:40;1.57;;;0.57;;
22417;SDS011;11376;50.932;4.442;2023-11-18T15:15:06;1.33;;;0.40;;